createdAt,value
2023-01-21T00:01:46.821Z,3.40
2023-01-21T00:04:15.307Z,3.40
2023-01-21T00:06:43.710Z,3.50
2023-01-21T00:09:12.397Z,3.50
2023-01-21T00:11:42.263Z,3.50
2023-01-21T00:14:11.742Z,3.60
2023-01-21T00:16:40.101Z,3.50
2023-01-21T00:19:08.540Z,3.60
2023-01-21T00:21:36.810Z,3.50
2023-01-21T00:24:05.159Z,3.50
2023-01-21T00:26:33.728Z,3.40
2023-01-21T00:29:03.246Z,3.50
2023-01-21T00:31:32.031Z,3.60
2023-01-21T00:34:00.509Z,3.40
2023-01-21T00:36:29.834Z,3.40
2023-01-21T00:38:58.577Z,3.40
2023-01-21T00:41:27.611Z,3.40
2023-01-21T00:43:55.982Z,3.40
2023-01-21T00:46:25.621Z,3.40
2023-01-21T00:48:56.084Z,3.40
2023-01-21T00:51:24.765Z,3.40
2023-01-21T00:53:53.140Z,3.50
2023-01-21T00:56:21.575Z,3.40
2023-01-21T00:58:50.339Z,3.30
2023-01-21T01:01:20.978Z,3.30
2023-01-21T01:03:51.411Z,3.30
2023-01-21T01:06:21.453Z,3.20
2023-01-21T01:08:50.298Z,3.30
2023-01-21T01:11:21.549Z,3.30
2023-01-21T01:13:50.038Z,3.30
2023-01-21T01:16:18.877Z,3.30
2023-01-21T01:18:47.502Z,3.20
2023-01-21T01:21:19.027Z,3.20
2023-01-21T01:23:47.928Z,3.20
2023-01-21T01:26:17.991Z,3.20
2023-01-21T01:28:46.685Z,3.20
2023-01-21T01:31:16.983Z,3.10
2023-01-21T01:33:45.422Z,3.10
2023-01-21T01:36:17.121Z,3.00
2023-01-21T01:38:45.710Z,3.00
2023-01-21T01:41:18.048Z,3.00
2023-01-21T01:43:58.805Z,3.00
2023-01-21T01:46:28.517Z,2.90
2023-01-21T01:49:05.372Z,3.00
2023-01-21T01:51:43.153Z,2.90
2023-01-21T01:54:14.872Z,2.90
2023-01-21T01:56:45.260Z,2.80
2023-01-21T01:59:13.822Z,2.80
2023-01-21T02:01:42.576Z,2.80
2023-01-21T02:04:18.082Z,2.80
2023-01-21T02:06:49.030Z,2.80
2023-01-21T02:09:17.454Z,2.70
2023-01-21T02:11:46.033Z,2.80
2023-01-21T02:14:14.556Z,2.70
2023-01-21T02:17:08.414Z,2.70
2023-01-21T02:20:03.052Z,2.70
2023-01-21T02:22:37.525Z,2.70
2023-01-21T02:25:42.408Z,2.60
2023-01-21T02:28:44.367Z,2.60
2023-01-21T02:31:46.213Z,2.50
2023-01-21T02:34:22.393Z,2.50
2023-01-21T02:37:01.967Z,2.50
2023-01-21T02:39:43.435Z,2.50
2023-01-21T02:42:19.276Z,2.50
2023-01-21T02:44:54.393Z,2.50
2023-01-21T02:47:34.224Z,2.50
2023-01-21T02:50:08.064Z,2.50
2023-01-21T02:52:36.692Z,2.50
2023-01-21T02:55:06.204Z,2.50
2023-01-21T02:57:44.044Z,2.50
2023-01-21T03:00:18.728Z,2.50
2023-01-21T03:03:13.251Z,2.50
2023-01-21T03:05:57.014Z,2.40
2023-01-21T03:08:33.545Z,2.50
2023-01-21T03:11:18.695Z,2.50
2023-01-21T03:14:09.731Z,2.40
2023-01-21T03:16:59.473Z,2.40
2023-01-21T03:19:36.037Z,2.40
2023-01-21T03:22:10.134Z,2.40
2023-01-21T03:24:39.401Z,2.40
2023-01-21T03:27:10.057Z,2.40
2023-01-21T03:29:40.135Z,2.30
2023-01-21T03:32:11.627Z,2.30
2023-01-21T03:34:44.643Z,2.30
2023-01-21T03:37:19.230Z,2.30
2023-01-21T03:39:54.995Z,2.30
2023-01-21T03:42:24.089Z,2.20
2023-01-21T03:44:52.838Z,2.20
2023-01-21T03:47:25.344Z,2.20
2023-01-21T03:49:58.371Z,2.20
2023-01-21T03:52:28.687Z,2.10
2023-01-21T03:54:57.587Z,2.20
2023-01-21T03:57:25.946Z,2.10
2023-01-21T03:59:54.787Z,2.10
2023-01-21T04:02:23.500Z,2.10
2023-01-21T04:04:58.338Z,2.10
2023-01-21T04:07:27.975Z,2.00
2023-01-21T04:09:56.363Z,2.10
2023-01-21T04:12:24.889Z,2.00
2023-01-21T04:14:53.436Z,2.00
2023-01-21T04:17:21.864Z,2.10
2023-01-21T04:19:50.261Z,2.00
2023-01-21T04:22:18.658Z,2.00
2023-01-21T04:24:48.297Z,2.00
2023-01-21T04:27:16.531Z,2.00
2023-01-21T04:29:44.914Z,2.00
2023-01-21T04:32:13.447Z,2.00
2023-01-21T04:34:41.880Z,2.00
2023-01-21T04:37:10.161Z,1.90
2023-01-21T04:39:38.443Z,2.00
2023-01-21T04:42:08.386Z,2.00
2023-01-21T04:44:36.725Z,2.00
2023-01-21T04:47:05.074Z,2.00
2023-01-21T04:49:33.443Z,2.00
2023-01-21T04:52:02.130Z,2.00
2023-01-21T04:54:30.771Z,2.00
2023-01-21T04:56:59.253Z,1.90
2023-01-21T04:59:28.891Z,1.90
2023-01-21T05:01:57.601Z,2.00
2023-01-21T05:04:25.884Z,2.00
2023-01-21T05:06:54.228Z,2.00
2023-01-21T05:09:22.616Z,2.00
2023-01-21T05:11:50.964Z,2.00
2023-01-21T05:14:19.443Z,2.00
2023-01-21T05:16:49.215Z,1.90
2023-01-21T05:19:17.575Z,2.00
2023-01-21T05:21:46.163Z,2.00
2023-01-21T05:24:14.572Z,1.90
2023-01-21T05:26:43.236Z,1.90
2023-01-21T05:29:11.626Z,1.90
2023-01-21T05:31:40.340Z,1.90
2023-01-21T05:34:10.380Z,1.90
2023-01-21T05:36:39.352Z,1.90
2023-01-21T05:39:07.978Z,1.90
2023-01-21T05:41:36.204Z,1.90
2023-01-21T05:44:04.475Z,1.80
2023-01-21T05:46:32.903Z,1.90
2023-01-21T05:49:01.319Z,1.90
2023-01-21T05:51:31.118Z,1.90
2023-01-21T05:53:59.715Z,1.90
2023-01-21T05:56:28.064Z,1.80
2023-01-21T05:58:56.610Z,1.80
2023-01-21T06:01:25.361Z,1.80
2023-01-21T06:03:53.772Z,1.90
2023-01-21T06:06:22.677Z,1.90
2023-01-21T06:08:52.199Z,2.00
2023-01-21T06:11:20.857Z,2.00
2023-01-21T06:13:49.290Z,2.00
2023-01-21T06:16:17.674Z,2.00
2023-01-21T06:18:46.119Z,2.00
2023-01-21T06:21:14.514Z,2.00
2023-01-21T06:23:42.947Z,2.00
2023-01-21T06:26:12.754Z,2.00
2023-01-21T06:28:41.173Z,2.00
2023-01-21T06:31:09.624Z,2.00
2023-01-21T06:33:38.144Z,2.10
2023-01-21T06:36:07.048Z,2.00
2023-01-21T06:38:36.203Z,2.00
2023-01-21T06:41:05.004Z,2.10
2023-01-21T06:43:34.655Z,2.10
2023-01-21T06:46:03.118Z,2.10
2023-01-21T06:48:31.489Z,2.10
2023-01-21T06:51:02.131Z,2.00
2023-01-21T06:53:30.639Z,2.00
2023-01-21T06:55:58.858Z,1.90
2023-01-21T06:58:27.356Z,2.00
2023-01-21T07:00:58.762Z,2.00
2023-01-21T07:03:27.120Z,2.00
2023-01-21T07:05:55.462Z,2.00
2023-01-21T07:08:23.830Z,2.00
2023-01-21T07:10:52.313Z,1.90
2023-01-21T07:13:20.696Z,1.90
2023-01-21T07:15:49.098Z,1.90
2023-01-21T07:18:18.643Z,1.90
2023-01-21T07:20:47.274Z,2.00
2023-01-21T07:23:15.716Z,1.90
2023-01-21T07:25:44.142Z,1.80
2023-01-21T07:28:12.841Z,1.80
2023-01-21T07:30:41.479Z,1.90
2023-01-21T07:33:11.008Z,1.90
2023-01-21T07:35:40.575Z,1.90
2023-01-21T07:38:08.954Z,1.90
2023-01-21T07:40:37.482Z,1.90
2023-01-21T07:43:05.791Z,1.90
2023-01-21T07:45:34.156Z,1.80
2023-01-21T07:48:02.936Z,1.80
2023-01-21T07:50:31.087Z,1.80
2023-01-21T07:53:00.802Z,1.80
2023-01-21T07:55:29.978Z,1.70
2023-01-21T07:57:58.723Z,1.70
2023-01-21T08:00:27.829Z,1.70
2023-01-21T08:02:56.498Z,1.70
2023-01-21T08:05:26.047Z,1.70
2023-01-21T08:07:57.619Z,1.70
2023-01-21T08:10:27.794Z,1.70
2023-01-21T08:12:56.175Z,1.70
2023-01-21T08:15:24.549Z,1.80
2023-01-21T08:17:53.145Z,1.80
2023-01-21T08:20:21.436Z,1.80
2023-01-21T08:22:49.853Z,1.80
2023-01-21T08:25:18.379Z,1.80
2023-01-21T08:27:48.039Z,1.90
2023-01-21T08:30:17.360Z,1.90
2023-01-21T08:32:46.127Z,1.90
2023-01-21T08:35:14.456Z,2.00
2023-01-21T08:37:42.793Z,2.00
2023-01-21T08:40:12.315Z,2.10
2023-01-21T08:42:40.704Z,2.10
2023-01-21T08:45:12.753Z,2.10
2023-01-21T08:47:42.192Z,2.20
2023-01-21T08:50:11.683Z,2.20
2023-01-21T08:52:40.256Z,2.20
2023-01-21T08:55:09.058Z,2.20
2023-01-21T08:57:37.497Z,2.30
2023-01-21T09:00:06.620Z,2.40
2023-01-21T09:02:36.220Z,2.40
2023-01-21T09:05:04.905Z,2.40
2023-01-21T09:07:33.190Z,2.50
2023-01-21T09:10:01.900Z,2.50
2023-01-21T09:12:30.292Z,2.50
2023-01-21T09:14:58.872Z,2.60
2023-01-21T09:17:27.543Z,2.60
2023-01-21T09:19:57.324Z,2.60
2023-01-21T09:22:25.921Z,2.60
2023-01-21T09:24:54.238Z,2.70
2023-01-21T09:27:27.523Z,2.80
2023-01-21T09:29:56.129Z,2.90
2023-01-21T09:32:24.707Z,2.90
2023-01-21T09:34:53.097Z,3.00
2023-01-21T09:37:22.663Z,3.00
2023-01-21T09:39:51.087Z,3.10
2023-01-21T09:42:23.007Z,3.10
2023-01-21T09:44:53.656Z,3.20
2023-01-21T09:47:25.468Z,3.20
2023-01-21T09:49:55.380Z,3.20
2023-01-21T09:52:31.906Z,3.20
2023-01-21T09:55:02.808Z,3.30
2023-01-21T09:57:44.662Z,3.30
2023-01-21T10:00:30.172Z,3.30
2023-01-21T10:03:10.985Z,3.30
2023-01-21T10:06:27.700Z,3.40
2023-01-21T10:09:28.349Z,3.40
2023-01-21T10:12:19.069Z,3.50
2023-01-21T10:15:01.173Z,3.60
2023-01-21T10:17:39.619Z,3.60
2023-01-21T10:20:15.697Z,3.60
2023-01-21T10:22:49.293Z,3.60
2023-01-21T10:25:21.469Z,3.70
2023-01-21T10:27:51.090Z,3.60
2023-01-21T10:30:25.606Z,3.60
2023-01-21T10:32:57.234Z,3.70
2023-01-21T10:35:39.689Z,3.70
2023-01-21T10:38:15.155Z,3.70
2023-01-21T10:40:49.644Z,3.70
2023-01-21T10:43:32.761Z,3.80
2023-01-21T10:46:12.090Z,3.80
2023-01-21T10:48:47.859Z,3.80
2023-01-21T10:51:22.175Z,3.90
2023-01-21T10:53:57.053Z,3.90
2023-01-21T10:56:36.075Z,3.90
2023-01-21T10:59:10.216Z,3.90
2023-01-21T11:01:41.671Z,3.90
2023-01-21T11:04:15.769Z,4.00
2023-01-21T11:06:46.766Z,4.00
2023-01-21T11:09:16.609Z,4.10
2023-01-21T11:11:46.516Z,4.00
2023-01-21T11:14:16.284Z,4.10
2023-01-21T11:16:46.626Z,4.10
2023-01-21T11:19:16.886Z,4.10
2023-01-21T11:22:02.682Z,4.20
2023-01-21T11:24:32.617Z,4.20
2023-01-21T11:27:02.153Z,4.20
2023-01-21T11:29:42.808Z,4.20
2023-01-21T11:32:19.715Z,4.30
2023-01-21T11:34:49.680Z,4.30
2023-01-21T11:37:24.809Z,4.20
2023-01-21T11:39:56.174Z,4.00
2023-01-21T11:42:24.931Z,4.00
2023-01-21T11:44:57.517Z,4.00
2023-01-21T11:47:37.988Z,4.10
2023-01-21T11:50:27.343Z,4.10
2023-01-21T11:53:11.482Z,4.10
2023-01-21T11:55:42.200Z,4.30
2023-01-21T11:58:19.685Z,4.40
2023-01-21T12:00:51.297Z,4.50
2023-01-21T12:03:23.793Z,4.50
2023-01-21T12:05:54.383Z,4.60
2023-01-21T12:08:26.042Z,4.70
2023-01-21T12:10:56.320Z,4.60
2023-01-21T12:13:30.583Z,4.70
2023-01-21T12:16:32.750Z,4.70
2023-01-21T12:19:28.605Z,4.70
2023-01-21T12:22:17.044Z,4.70
2023-01-21T12:25:03.717Z,4.80
2023-01-21T12:27:37.138Z,4.80
2023-01-21T12:30:18.046Z,4.80
2023-01-21T12:32:51.589Z,4.80
2023-01-21T12:35:27.915Z,4.90
2023-01-21T12:38:00.685Z,4.90
2023-01-21T12:40:34.294Z,4.80
2023-01-21T12:43:08.770Z,4.90
2023-01-21T12:45:42.461Z,4.90
2023-01-21T12:48:17.545Z,4.90
2023-01-21T12:50:50.252Z,4.90
2023-01-21T12:53:27.586Z,4.90
2023-01-21T12:56:13.406Z,5.00
2023-01-21T12:58:45.787Z,5.00
2023-01-21T13:01:31.679Z,5.00
2023-01-21T13:04:07.941Z,5.00
2023-01-21T13:06:53.603Z,5.10
2023-01-21T13:09:31.379Z,5.10
2023-01-21T13:12:04.510Z,5.10
2023-01-21T13:14:37.291Z,5.10
2023-01-21T13:17:14.448Z,5.20
2023-01-21T13:19:44.225Z,5.20
2023-01-21T13:22:26.671Z,5.20
2023-01-21T13:25:04.857Z,5.20
2023-01-21T13:27:40.202Z,5.20
2023-01-21T13:30:20.235Z,5.20
2023-01-21T13:32:53.864Z,5.30
2023-01-21T13:35:36.849Z,5.30
2023-01-21T13:38:14.675Z,5.20
2023-01-21T13:40:48.835Z,5.30
2023-01-21T13:43:45.230Z,5.30
2023-01-21T13:46:23.761Z,5.30
2023-01-21T13:49:07.071Z,5.20
2023-01-21T13:51:51.053Z,5.30
2023-01-21T13:54:43.365Z,5.30
2023-01-21T13:57:30.488Z,5.30
2023-01-21T14:00:02.204Z,5.30
2023-01-21T14:02:35.908Z,5.30
2023-01-21T14:05:10.741Z,5.30
2023-01-21T14:07:46.528Z,5.30
2023-01-21T14:10:28.196Z,5.30
2023-01-21T14:13:44.136Z,5.30
2023-01-21T14:16:35.389Z,5.30
2023-01-21T14:19:24.926Z,5.40
2023-01-21T14:22:09.994Z,5.30
2023-01-21T14:24:57.240Z,5.20
2023-01-21T14:27:35.174Z,5.20
2023-01-21T14:30:10.972Z,5.30
2023-01-21T14:32:43.376Z,5.20
2023-01-21T14:35:21.298Z,5.30
2023-01-21T14:37:56.464Z,5.30
2023-01-21T14:40:31.448Z,5.30
2023-01-21T14:43:00.413Z,5.20
2023-01-21T14:45:53.414Z,5.20
2023-01-21T14:48:32.857Z,5.20
2023-01-21T14:51:21.819Z,5.10
2023-01-21T14:53:51.531Z,5.20
2023-01-21T14:56:27.833Z,5.20
2023-01-21T14:58:59.071Z,5.20
2023-01-21T15:01:31.439Z,5.10
2023-01-21T15:04:05.124Z,5.20
2023-01-21T15:06:38.597Z,5.30
2023-01-21T15:09:09.337Z,5.20
2023-01-21T15:11:41.375Z,5.10
2023-01-21T15:14:15.568Z,5.20
2023-01-21T15:16:45.436Z,5.20
2023-01-21T15:19:31.541Z,5.10
2023-01-21T15:22:10.518Z,5.10
2023-01-21T15:24:41.881Z,5.00
2023-01-21T15:27:21.792Z,5.00
2023-01-21T15:30:28.875Z,5.00
2023-01-21T15:32:58.220Z,5.00
2023-01-21T15:35:34.260Z,5.00
2023-01-21T15:38:05.266Z,4.90
2023-01-21T15:40:40.059Z,4.80
2023-01-21T15:43:19.277Z,4.80
2023-01-21T15:45:55.752Z,4.70
2023-01-21T15:48:44.071Z,4.60
2023-01-21T15:51:25.248Z,4.60
2023-01-21T15:54:12.417Z,4.60
2023-01-21T15:56:52.096Z,4.50
2023-01-21T15:59:35.781Z,4.40
2023-01-21T16:02:20.225Z,4.40
2023-01-21T16:05:00.382Z,4.30
2023-01-21T16:07:40.141Z,4.30
2023-01-21T16:10:19.447Z,4.20
2023-01-21T16:12:55.304Z,4.20
2023-01-21T16:15:39.509Z,4.20
2023-01-21T16:18:17.378Z,4.10
2023-01-21T16:20:48.743Z,4.00
2023-01-21T16:23:20.791Z,4.30
2023-01-21T16:25:50.639Z,4.20
2023-01-21T16:28:19.432Z,4.00
2023-01-21T16:30:56.188Z,3.90
2023-01-21T16:33:24.889Z,3.80
2023-01-21T16:35:56.230Z,3.80
2023-01-21T16:38:27.253Z,3.80
2023-01-21T16:41:24.298Z,3.70
2023-01-21T16:43:55.392Z,3.60
2023-01-21T16:46:27.775Z,3.60
2023-01-21T16:48:58.370Z,3.60
2023-01-21T16:51:32.808Z,3.50
2023-01-21T16:54:23.840Z,3.40
2023-01-21T16:56:54.635Z,3.40
2023-01-21T16:59:26.023Z,3.40
2023-01-21T17:01:56.697Z,3.40
2023-01-21T17:04:25.132Z,3.30
2023-01-21T17:06:54.245Z,3.30
2023-01-21T17:09:29.693Z,3.20
2023-01-21T17:11:59.188Z,3.20
2023-01-21T17:14:30.131Z,3.20
2023-01-21T17:17:03.679Z,3.20
2023-01-21T17:19:36.523Z,3.10
2023-01-21T17:22:14.268Z,3.10
2023-01-21T17:24:55.910Z,3.10
2023-01-21T17:27:26.262Z,3.00
2023-01-21T17:29:54.675Z,3.00
2023-01-21T17:32:32.336Z,3.00
2023-01-21T17:35:12.897Z,3.00
2023-01-21T17:37:45.881Z,3.00
2023-01-21T17:40:30.431Z,2.90
2023-01-21T17:43:00.028Z,2.90
2023-01-21T17:45:31.878Z,2.80
2023-01-21T17:48:14.035Z,2.80
2023-01-21T17:50:47.383Z,2.80
2023-01-21T17:53:23.660Z,2.70
2023-01-21T17:56:01.186Z,2.50
2023-01-21T17:58:48.307Z,2.40
2023-01-21T18:01:17.536Z,2.40
2023-01-21T18:03:47.331Z,2.40
2023-01-21T18:06:21.210Z,2.30
2023-01-21T18:08:51.012Z,2.30
2023-01-21T18:11:20.096Z,2.20
2023-01-21T18:13:48.928Z,2.20
2023-01-21T18:16:17.781Z,2.10
2023-01-21T18:18:49.443Z,2.00
2023-01-21T18:21:21.686Z,2.00
2023-01-21T18:23:50.946Z,1.90
2023-01-21T18:26:27.692Z,2.00
2023-01-21T18:28:56.109Z,2.00
2023-01-21T18:31:24.921Z,2.00
2023-01-21T18:33:54.659Z,1.90
2023-01-21T18:36:23.065Z,1.90
2023-01-21T18:38:51.609Z,1.70
2023-01-21T18:41:20.362Z,1.60
2023-01-21T18:43:48.678Z,1.50
2023-01-21T18:46:19.702Z,1.60
2023-01-21T18:48:48.295Z,1.50
2023-01-21T18:51:18.237Z,1.50
2023-01-21T18:53:47.028Z,1.40
2023-01-21T18:56:16.964Z,1.40
2023-01-21T18:58:45.376Z,1.50
2023-01-21T19:01:23.129Z,1.40
2023-01-21T19:03:54.652Z,1.40
2023-01-21T19:06:26.316Z,1.40
2023-01-21T19:08:55.314Z,1.20
2023-01-21T19:11:23.815Z,1.20
2023-01-21T19:13:52.665Z,1.20
2023-01-21T19:16:22.911Z,1.00
2023-01-21T19:18:51.551Z,1.00
2023-01-21T19:21:20.117Z,1.00
2023-01-21T19:23:49.980Z,1.00
2023-01-21T19:26:18.559Z,1.00
2023-01-21T19:28:46.833Z,0.90
2023-01-21T19:31:15.585Z,0.80
2023-01-21T19:33:45.666Z,0.90
2023-01-21T19:36:16.512Z,0.80
2023-01-21T19:38:49.376Z,0.70
2023-01-21T19:41:18.967Z,0.80
2023-01-21T19:43:47.434Z,0.80
2023-01-21T19:46:15.939Z,0.80
2023-01-21T19:48:44.412Z,0.70
2023-01-21T19:51:12.777Z,0.70
2023-01-21T19:53:41.103Z,0.80
2023-01-21T19:56:14.991Z,0.80
2023-01-21T19:58:44.617Z,0.80
2023-01-21T20:01:13.536Z,0.70
2023-01-21T20:03:54.779Z,0.60
2023-01-21T20:06:28.690Z,0.60
2023-01-21T20:08:57.159Z,0.60
2023-01-21T20:11:26.173Z,0.60
2023-01-21T20:13:55.717Z,0.50
2023-01-21T20:16:26.344Z,0.50
2023-01-21T20:18:56.344Z,0.50
2023-01-21T20:21:24.688Z,0.40
2023-01-21T20:23:53.074Z,0.40
2023-01-21T20:26:25.333Z,0.50
2023-01-21T20:28:54.984Z,0.40
2023-01-21T20:31:23.488Z,0.40
2023-01-21T20:33:51.885Z,0.40
2023-01-21T20:36:22.273Z,0.40
2023-01-21T20:38:50.674Z,0.40
2023-01-21T20:41:19.400Z,0.40
2023-01-21T20:43:47.946Z,0.40
2023-01-21T20:46:21.518Z,0.30
2023-01-21T20:48:51.752Z,0.30
2023-01-21T20:51:21.037Z,0.30
2023-01-21T20:53:49.370Z,0.30
2023-01-21T20:56:23.529Z,0.30
2023-01-21T20:58:51.939Z,0.30
2023-01-21T21:01:23.492Z,0.20
2023-01-21T21:03:52.302Z,0.20
2023-01-21T21:06:22.119Z,0.20
2023-01-21T21:08:50.937Z,0.20
2023-01-21T21:11:20.012Z,0.30
2023-01-21T21:13:52.141Z,0.30
2023-01-21T21:16:24.364Z,0.20
2023-01-21T21:18:53.097Z,0.20
2023-01-21T21:21:23.862Z,0.30
2023-01-21T21:23:53.408Z,0.30
2023-01-21T21:26:23.224Z,0.10
2023-01-21T21:28:54.753Z,0.20
2023-01-21T21:31:26.375Z,0.20
2023-01-21T21:33:54.893Z,0.20
2023-01-21T21:36:24.669Z,0.10
2023-01-21T21:38:55.799Z,0.10
2023-01-21T21:41:43.189Z,0.10
2023-01-21T21:44:12.157Z,0.10
2023-01-21T21:46:56.004Z,0.10
2023-01-21T21:49:24.482Z,0.10
2023-01-21T21:51:52.849Z,0.10
2023-01-21T21:54:21.281Z,0.00
2023-01-21T21:56:49.526Z,0.10
2023-01-21T21:59:17.934Z,0.00
2023-01-21T22:01:47.753Z,-0.10
2023-01-21T22:04:16.293Z,0.00
2023-01-21T22:06:44.777Z,-0.10
2023-01-21T22:09:14.331Z,-0.20
2023-01-21T22:11:42.869Z,-0.10
2023-01-21T22:14:11.416Z,-0.10
2023-01-21T22:16:40.217Z,-0.10
2023-01-21T22:19:09.903Z,-0.10
2023-01-21T22:21:38.728Z,-0.10
2023-01-21T22:24:08.271Z,-0.20
2023-01-21T22:26:37.109Z,-0.20
2023-01-21T22:29:05.655Z,-0.20
2023-01-21T22:31:34.704Z,-0.20
2023-01-21T22:34:03.171Z,-0.20
2023-01-21T22:36:33.094Z,-0.30
2023-01-21T22:39:02.240Z,-0.30
2023-01-21T22:41:30.809Z,-0.30
2023-01-21T22:43:59.545Z,-0.30
2023-01-21T22:46:30.448Z,-0.30
2023-01-21T22:48:58.947Z,-0.30
2023-01-21T22:51:28.131Z,-0.30
2023-01-21T22:54:00.179Z,-0.30
2023-01-21T22:56:49.502Z,-0.40
2023-01-21T22:59:17.121Z,-0.40
2023-01-21T23:01:45.825Z,-0.40
2023-01-21T23:04:14.883Z,-0.40
2023-01-21T23:06:44.687Z,-0.40
2023-01-21T23:09:16.397Z,-0.30
2023-01-21T23:11:45.436Z,-0.40
2023-01-21T23:14:13.829Z,-0.40
2023-01-21T23:16:42.365Z,-0.30
2023-01-21T23:19:10.662Z,-0.30
2023-01-21T23:21:39.872Z,-0.30
2023-01-21T23:24:09.405Z,-0.30
2023-01-21T23:26:39.211Z,-0.40
2023-01-21T23:29:07.712Z,-0.30
2023-01-21T23:31:36.650Z,-0.40
2023-01-21T23:34:05.124Z,-0.40
2023-01-21T23:36:33.406Z,-0.40
2023-01-21T23:39:01.707Z,-0.40
2023-01-21T23:41:30.084Z,-0.40
2023-01-21T23:44:01.707Z,-0.40
2023-01-21T23:46:30.133Z,-0.40
2023-01-21T23:48:58.670Z,-0.40
2023-01-21T23:51:27.155Z,-0.40
2023-01-21T23:53:57.212Z,-0.30
2023-01-21T23:56:26.439Z,-0.30
2023-01-21T23:58:55.200Z,-0.40
